Plaisance, Maurice

11:29 MUT le 26 novembre 2014 (GMT +0400)
Mauritius International | Change Station
CLOSE
Current Station
Aéroport
Location: Plaisance,
Altitude: 187 ft
Stations météo à proximité

Alt. 187 ft 20.43 °S, 57.68 °E | Updated 29 minutes ago

Mostly Cloudy
Nuageux
82 ° F
Paraît 87 ° F
N
9
Vent Variable Vent de ESE

Aujourd'hui
Haut(e) -- | Bas -- ° F
--% Risque de précip.
Hier
Haut(e) -- | Bas -- ° F
Precip. -- pouce
5:19 AM 6:33 PM
Lune montante, 17% visible
Pression 29.92 pouce
Visibilité 6.2 Miles terrestres
Nuages Nuageux 1500 ft
indice de chaleur 87 ° F
Point de rosée 72 ° F
Humidité 70%
Précipitations 0.00 pouce
Profondeur de la couche neigeuse Non disponible.
UV 8 sur 12
Pollen Non disponible.
Qualité de l'air Non disponible.
Flu Activity Non disponible.
METAR FIMP 260700Z 11008KT 9999 BKN015 28/22 Q1013

More Conditions Fewer Conditions

Pression 29.92 pouce
Visibilité 6.2 Miles terrestres
Nuages Nuageux 1500 ft
indice de chaleur 87 ° F
Point de rosée 72 ° F
Humidité 70%
Précipitations 0.00 pouce
Profondeur de la couche neigeuse Non disponible.
UV 8 sur 12
Pollen Non disponible.
Qualité de l'air Non disponible.
Flu Activity Non disponible.
METAR FIMP 260700Z 11008KT 9999 BKN015 28/22 Q1013

More Conditions Fewer Conditions

10-Day Weather Forecast

Almanac

Astronomie

Nov. 26, 2014 Lever Coucher
Temps réel
Crépuscule civil
Crépuscule nautique
Crépuscule astronomique
Lune
Durée de lumière visible
Longueur du jour
Tomorrow will be .
, % of the Moon is Illuminated

Extrêmes aujourd'hui

Country Highs Country Lows

Community

WunderPhotos

Upload Photos

1,773,694 Photos téléchargées !

WunderBlogs® & News

Nearby

Qualité de l'air

  Qualité de l'air Indice de la qualité de l'air Polluant
Not available.

Épaisseur de neige

Station Depth Altitude

Activité sismique

Ville Distance Mag. Time & Date
Minimum magnitude displayed is 2.5.

Températures des eaux côtières

Lieu Température

Stations météo à proximité